Parker, WA (98939)

7:59 AM PDT on May 06, 2015 (GMT -0700)
Vicinity I-82 Exit 40 | | Change Station
CLOSE
Current Station
Personal Weather Station
Location: Parker Heights, WA
Elevation: 1013 ft
Nearby Weather Stations

Elev 1013 ft 46.52 °N, 120.45 °W | Updated 2 seconds ago

Clear
Clear
48.0 °F
Feels Like 48 °F
N
1.6
Wind Variable Wind from NE
Gusts 6.7 mph

Today
High -- | Low -- °F
--% Chance of Precip.
Yesterday
High -- | Low -- °F
Precip. -- in
5:40 AM 8:17 PM
Waning Gibbous, 94% visible
Pressure 30.03 in
Visibility 10.0 miles
Clouds Clear
Windchill 48 °F
Dew Point 30 °F
Humidity 50%
Rainfall in
Snow Depth Not available.
UV 0 out of 12
Pollen 8.00 out of 12
Air Quality Not available.
Flu Activity Sporadic
METAR KYKM 061253Z 25005KT 10SM CLR 00/M03 A3001 RMK AO2 SLP168 T00001033 $

More Conditions Fewer Conditions

Pressure 30.03 in
Visibility 10.0 miles
Clouds Clear
Windchill 48 °F
Dew Point 30 °F
Humidity 50%
Rainfall in
Snow Depth Not available.
UV 0 out of 12
Pollen 8.00 out of 12
Air Quality Not available.
Flu Activity Sporadic
METAR KYKM 061253Z 25005KT 10SM CLR 00/M03 A3001 RMK AO2 SLP168 T00001033 $

More Conditions Fewer Conditions

10-Day Weather Forecast

Almanac

Astronomy

May. 06, 2015 Rise Set
Actual Time
Civil Twilight
Nautical Twilight
Astronomical Twilight
Moon
Length of Visible Light
Length of Day
Tomorrow will be .
, % of the Moon is Illuminated

Today's Extremes

State Highs State Lows

Community

WunderPhotos

Upload Photos

1,818,920 photos uploaded!

WunderBlogs® & News

Nearby

Air Quality

  Air Quality AQ Index Pollutant
Not available.

Snow Depth

Station Depth Elevation

Earthquake Activity

City Distance Mag. Time & Date
Minimum magnitude displayed is 2.5.

Coastal Water Temperatures

Place Temperature

Stations

Nearby Weather Stations

Station Location Temp. Windchill Dew Point Humidity Wind Precip. Elev Updated Type